createdAt,value
2023-01-04T00:00:50.852Z,95430.31
2023-01-04T00:03:17.450Z,95428.31
2023-01-04T00:05:43.946Z,95441.31
2023-01-04T00:08:10.384Z,95450.41
2023-01-04T00:10:36.820Z,95445.19
2023-01-04T00:13:03.323Z,95436.94
2023-01-04T00:15:29.883Z,95433.47
2023-01-04T00:17:56.285Z,95436.75
2023-01-04T00:20:22.695Z,95445.19
2023-01-04T00:22:49.119Z,95440.31
2023-01-04T00:25:15.685Z,95435.81
2023-01-04T00:27:42.220Z,95428.44
2023-01-04T00:30:09.395Z,95424.28
2023-01-04T00:32:36.520Z,95433.06
2023-01-04T00:35:02.950Z,95425.41
2023-01-04T00:37:31.256Z,95418.03
2023-01-04T00:39:57.674Z,95421.53
2023-01-04T00:42:24.101Z,95410.75
2023-01-04T00:44:50.516Z,95415.47
2023-01-04T00:47:16.937Z,95412.66
2023-01-04T00:49:43.450Z,95405.50
2023-01-04T00:52:09.891Z,95404.47
2023-01-04T00:54:36.523Z,95402.69
2023-01-04T00:57:05.173Z,95394.38
2023-01-04T00:59:31.588Z,95397.41
2023-01-04T01:01:58.147Z,95391.09
2023-01-04T01:04:25.370Z,95392.13
2023-01-04T01:06:52.359Z,95391.34
2023-01-04T01:09:22.575Z,95399.88
2023-01-04T01:11:50.423Z,95384.25
2023-01-04T01:14:19.339Z,95380.47
2023-01-04T01:17:01.627Z,95383.34
2023-01-04T01:19:29.650Z,95376.84
2023-01-04T01:21:57.663Z,95377.88
2023-01-04T01:24:24.393Z,95376.28
2023-01-04T01:26:50.809Z,95375.06
2023-01-04T01:29:17.268Z,95383.81
2023-01-04T01:31:43.727Z,95383.81
2023-01-04T01:34:10.287Z,95393.81
2023-01-04T01:36:37.146Z,95398.38
2023-01-04T01:39:05.050Z,95393.91
2023-01-04T01:41:33.343Z,95396.38
2023-01-04T01:44:04.746Z,95390.41
2023-01-04T01:46:31.133Z,95395.56
2023-01-04T01:49:29.838Z,95395.22
2023-01-04T01:51:58.961Z,95396.25
2023-01-04T01:54:36.783Z,95390.84
2023-01-04T01:57:05.719Z,95386.94
2023-01-04T01:59:35.959Z,95396.81
2023-01-04T02:02:02.875Z,95379.19
2023-01-04T02:04:30.729Z,95388.63
2023-01-04T02:06:59.005Z,95382.13
2023-01-04T02:09:25.723Z,95381.88
2023-01-04T02:11:52.152Z,95375.50
2023-01-04T02:14:29.628Z,95371.66
2023-01-04T02:16:56.272Z,95369.31
2023-01-04T02:19:59.777Z,95371.66
2023-01-04T02:22:50.647Z,95364.16
2023-01-04T02:25:17.179Z,95367.97
2023-01-04T02:27:55.331Z,95364.41
2023-01-04T02:30:43.718Z,95369.09
2023-01-04T02:33:30.760Z,95366.06
2023-01-04T02:36:07.671Z,95367.22
2023-01-04T02:38:52.620Z,95367.56
2023-01-04T02:41:32.180Z,95358.00
2023-01-04T02:44:23.666Z,95352.50
2023-01-04T02:47:00.351Z,95356.88
2023-01-04T02:49:45.574Z,95352.16
2023-01-04T02:52:12.827Z,95353.41
2023-01-04T02:54:40.393Z,95343.97
2023-01-04T02:57:41.692Z,95346.66
2023-01-04T03:00:17.107Z,95354.19
2023-01-04T03:03:09.848Z,95350.81
2023-01-04T03:06:08.196Z,95347.44
2023-01-04T03:08:40.205Z,95353.06
2023-01-04T03:11:28.046Z,95353.50
2023-01-04T03:14:00.805Z,95332.41
2023-01-04T03:16:28.925Z,95340.59
2023-01-04T03:18:58.422Z,95344.22
2023-01-04T03:21:27.919Z,95333.88
2023-01-04T03:24:16.570Z,95336.47
2023-01-04T03:27:17.900Z,95338.03
2023-01-04T03:30:11.265Z,95331.75
2023-01-04T03:33:02.664Z,95330.50
2023-01-04T03:35:48.856Z,95329.72
2023-01-04T03:38:52.962Z,95320.41
2023-01-04T03:41:46.057Z,95319.84
2023-01-04T03:44:49.754Z,95302.81
2023-01-04T03:47:43.648Z,95299.44
2023-01-04T03:50:15.546Z,95313.78
2023-01-04T03:52:46.038Z,95306.84
2023-01-04T03:55:13.706Z,95298.09
2023-01-04T03:57:41.005Z,95300.09
2023-01-04T04:00:17.012Z,95301.69
2023-01-04T04:02:47.121Z,95284.41
2023-01-04T04:05:36.892Z,95284.97
2023-01-04T04:08:22.371Z,95282.16
2023-01-04T04:10:48.820Z,95275.78
2023-01-04T04:13:15.298Z,95269.81
2023-01-04T04:15:42.019Z,95276.78
2023-01-04T04:18:08.880Z,95281.94
2023-01-04T04:20:35.366Z,95275.19
2023-01-04T04:23:01.911Z,95269.47
2023-01-04T04:25:28.311Z,95279.34
2023-01-04T04:27:54.786Z,95276.22
2023-01-04T04:30:21.195Z,95272.63
2023-01-04T04:32:47.657Z,95268.69
2023-01-04T04:35:14.192Z,95271.50
2023-01-04T04:37:40.691Z,95278.13
2023-01-04T04:40:08.135Z,95276.31
2023-01-04T04:42:34.601Z,95277.31
2023-01-04T04:45:01.018Z,95274.75
2023-01-04T04:47:27.423Z,95274.19
2023-01-04T04:49:53.819Z,95281.13
2023-01-04T04:52:20.214Z,95278.00
2023-01-04T04:54:46.615Z,95273.63
2023-01-04T04:57:13.011Z,95270.06
2023-01-04T04:59:39.410Z,95277.22
2023-01-04T05:02:06.010Z,95274.88
2023-01-04T05:04:32.645Z,95274.09
2023-01-04T05:06:59.067Z,95275.88
2023-01-04T05:09:25.468Z,95275.66
2023-01-04T05:12:10.438Z,95277.44
2023-01-04T05:14:36.859Z,95269.72
2023-01-04T05:17:03.414Z,95264.56
2023-01-04T05:19:29.906Z,95274.63
2023-01-04T05:21:56.335Z,95274.63
2023-01-04T05:24:22.787Z,95285.97
2023-01-04T05:26:49.200Z,95260.53
2023-01-04T05:29:35.566Z,95280.91
2023-01-04T05:32:02.084Z,95266.44
2023-01-04T05:34:28.543Z,95277.34
2023-01-04T05:36:54.962Z,95263.09
2023-01-04T05:39:21.405Z,95272.38
2023-01-04T05:42:06.337Z,95256.91
2023-01-04T05:44:32.732Z,95252.31
2023-01-04T05:46:59.127Z,95247.38
2023-01-04T05:49:25.812Z,95254.34
2023-01-04T05:51:52.233Z,95245.59
2023-01-04T05:54:21.477Z,95234.06
2023-01-04T05:56:48.263Z,95236.38
2023-01-04T05:59:15.998Z,95238.75
2023-01-04T06:01:42.469Z,95237.53
2023-01-04T06:04:08.945Z,95206.38
2023-01-04T06:06:35.441Z,95240.22
2023-01-04T06:09:01.901Z,95238.19
2023-01-04T06:11:28.321Z,95237.72
2023-01-04T06:13:54.761Z,95235.94
2023-01-04T06:16:21.197Z,95238.88
2023-01-04T06:18:47.639Z,95247.94
2023-01-04T06:21:14.084Z,95240.75
2023-01-04T06:23:40.481Z,95235.16
2023-01-04T06:26:06.943Z,95235.94
2023-01-04T06:28:38.684Z,95237.28
2023-01-04T06:31:09.024Z,95233.47
2023-01-04T06:33:35.637Z,95228.41
2023-01-04T06:36:02.176Z,95229.97
2023-01-04T06:38:30.015Z,95227.41
2023-01-04T06:40:56.423Z,95225.13
2023-01-04T06:43:22.815Z,95233.22
2023-01-04T06:45:49.582Z,95223.44
2023-01-04T06:48:18.128Z,95227.59
2023-01-04T06:50:45.211Z,95224.56
2023-01-04T06:53:11.703Z,95223.56
2023-01-04T06:55:38.118Z,95221.53
2023-01-04T06:58:04.565Z,95215.22
2023-01-04T07:00:31.089Z,95221.06
2023-01-04T07:03:14.410Z,95207.13
2023-01-04T07:05:42.842Z,95206.38
2023-01-04T07:08:09.481Z,95203.09
2023-01-04T07:10:36.107Z,95203.19
2023-01-04T07:13:02.695Z,95194.53
2023-01-04T07:15:38.292Z,95191.94
2023-01-04T07:18:08.100Z,95211.22
2023-01-04T07:20:34.766Z,95211.00
2023-01-04T07:23:01.179Z,95212.88
2023-01-04T07:25:27.573Z,95216.31
2023-01-04T07:27:55.085Z,95209.69
2023-01-04T07:30:22.773Z,95215.19
2023-01-04T07:32:52.017Z,95212.16
2023-01-04T07:35:19.082Z,95215.28
2023-01-04T07:37:45.939Z,95204.03
2023-01-04T07:40:12.547Z,95215.44
2023-01-04T07:42:39.326Z,95214.44
2023-01-04T07:45:06.711Z,95213.97
2023-01-04T07:47:33.276Z,95212.47
2023-01-04T07:50:00.230Z,95212.03
2023-01-04T07:52:27.306Z,95207.31
2023-01-04T07:54:54.010Z,95220.91
2023-01-04T07:57:20.404Z,95221.22
2023-01-04T07:59:46.844Z,95213.72
2023-01-04T08:02:13.733Z,95208.00
2023-01-04T08:04:40.391Z,95213.78
2023-01-04T08:07:06.884Z,95222.09
2023-01-04T08:09:33.306Z,95215.38
2023-01-04T08:11:59.687Z,95219.28
2023-01-04T08:14:26.240Z,95211.81
2023-01-04T08:16:52.813Z,95217.56
2023-01-04T08:19:21.245Z,95218.09
2023-01-04T08:21:48.314Z,95214.03
2023-01-04T08:24:17.381Z,95204.25
2023-01-04T08:26:44.465Z,95211.53
2023-01-04T08:29:11.771Z,95206.66
2023-01-04T08:31:39.284Z,95212.41
2023-01-04T08:34:08.324Z,95213.72
2023-01-04T08:36:36.831Z,95203.13
2023-01-04T08:39:05.933Z,95196.69
2023-01-04T08:42:02.601Z,95192.09
2023-01-04T08:44:35.059Z,95190.06
2023-01-04T08:47:02.024Z,95184.09
2023-01-04T08:49:28.652Z,95183.84
2023-01-04T08:51:55.166Z,95172.41
2023-01-04T08:54:22.861Z,95185.66
2023-01-04T08:56:49.534Z,95171.94
2023-01-04T08:59:16.112Z,95176.81
2023-01-04T09:01:42.671Z,95176.88
2023-01-04T09:04:09.640Z,95174.75
2023-01-04T09:06:37.655Z,95178.66
2023-01-04T09:09:04.193Z,95178.44
2023-01-04T09:11:30.702Z,95158.47
2023-01-04T09:14:06.712Z,95171.47
2023-01-04T09:16:34.974Z,95172.72
2023-01-04T09:19:01.576Z,95177.13
2023-01-04T09:21:28.230Z,95178.66
2023-01-04T09:23:57.373Z,95167.25
2023-01-04T09:26:24.128Z,95174.53
2023-01-04T09:28:52.881Z,95171.94
2023-01-04T09:31:22.835Z,95169.91
2023-01-04T09:36:36.097Z,95179.78
2023-01-04T09:39:02.574Z,95157.50
2023-01-04T09:41:31.065Z,95154.75
2023-01-04T09:44:09.454Z,95156.63
2023-01-04T09:46:47.737Z,95158.25
2023-01-04T09:49:26.393Z,95156.22
2023-01-04T09:52:26.074Z,95147.19
2023-01-04T09:55:00.791Z,95138.19
2023-01-04T09:57:49.198Z,95129.69
2023-01-04T10:00:21.690Z,95124.75
2023-01-04T10:03:07.387Z,95122.25
2023-01-04T10:05:34.338Z,95129.53
2023-01-04T10:08:01.921Z,95132.22
2023-01-04T10:10:45.504Z,95131.03
2023-01-04T10:13:48.820Z,95140.09
2023-01-04T10:16:52.576Z,95144.22
2023-01-04T10:22:31.657Z,95128.38
2023-01-04T10:25:04.164Z,95134.09
2023-01-04T10:27:53.851Z,95129.16
2023-01-04T10:30:49.637Z,95121.94
2023-01-04T10:33:24.275Z,95120.91
2023-01-04T10:35:51.013Z,95110.09
2023-01-04T10:38:23.791Z,95111.41
2023-01-04T10:40:50.602Z,95111.69
2023-01-04T10:44:10.888Z,95096.44
2023-01-04T10:46:30.504Z,95108.59
2023-01-04T10:49:15.517Z,95104.47
2023-01-04T10:51:56.416Z,95108.84
2023-01-04T10:54:35.412Z,95091.25
2023-01-04T10:57:15.113Z,95077.06
2023-01-04T10:59:48.798Z,95082.28
2023-01-04T11:02:40.200Z,95083.38
2023-01-04T11:05:25.395Z,95068.34
2023-01-04T11:07:56.838Z,95057.25
2023-01-04T11:10:28.816Z,95052.38
2023-01-04T11:12:55.540Z,95055.25
2023-01-04T11:15:22.591Z,95053.97
2023-01-04T11:17:50.617Z,95048.31
2023-01-04T11:20:17.601Z,95057.13
2023-01-04T11:23:00.898Z,95046.06
2023-01-04T11:25:36.304Z,95039.59
2023-01-04T11:28:18.061Z,95044.31
2023-01-04T11:31:04.585Z,95058.34
2023-01-04T11:33:32.712Z,95040.97
2023-01-04T11:35:59.554Z,95041.34
2023-01-04T11:38:28.908Z,95037.09
2023-01-04T11:41:02.442Z,95035.41
2023-01-04T11:43:34.802Z,95033.13
2023-01-04T11:46:22.659Z,95030.56
2023-01-04T11:48:49.109Z,95007.00
2023-01-04T11:51:28.829Z,95015.38
2023-01-04T11:54:15.112Z,95012.31
2023-01-04T11:56:57.597Z,95001.41
2023-01-04T11:59:25.769Z,95012.59
2023-01-04T12:02:11.022Z,95005.88
2023-01-04T12:04:37.597Z,95028.50
2023-01-04T12:07:13.855Z,95027.72
2023-01-04T12:09:40.292Z,95026.69
2023-01-04T12:12:10.957Z,95022.28
2023-01-04T12:14:48.944Z,95016.81
2023-01-04T12:17:25.490Z,95018.63
2023-01-04T12:19:55.046Z,95006.41
2023-01-04T12:22:33.451Z,95012.66
2023-01-04T12:25:01.627Z,95005.41
2023-01-04T12:27:28.550Z,94993.16
2023-01-04T12:30:01.076Z,95004.59
2023-01-04T12:32:27.448Z,94998.63
2023-01-04T12:34:54.628Z,94994.19
2023-01-04T12:37:46.026Z,94998.38
2023-01-04T12:40:46.633Z,94991.59
2023-01-04T12:43:15.833Z,94994.22
2023-01-04T12:45:44.113Z,94997.59
2023-01-04T12:48:47.574Z,95002.53
2023-01-04T12:51:33.561Z,95001.47
2023-01-04T12:54:05.945Z,94998.88
2023-01-04T12:57:10.362Z,94999.13
2023-01-04T12:59:39.302Z,94984.84
2023-01-04T13:02:22.980Z,94976.28
2023-01-04T13:05:09.317Z,94970.81
2023-01-04T13:07:53.399Z,94970.81
2023-01-04T13:10:44.624Z,94970.00
2023-01-04T13:13:31.729Z,94963.25
2023-01-04T13:16:22.144Z,94955.47
2023-01-04T13:18:50.948Z,94981.44
2023-01-04T13:21:39.361Z,94962.22
2023-01-04T13:24:30.445Z,94965.06
2023-01-04T13:26:58.157Z,94951.03
2023-01-04T13:29:30.610Z,94946.91
2023-01-04T13:32:12.067Z,94955.47
2023-01-04T13:34:51.070Z,94931.06
2023-01-04T13:37:47.713Z,94937.28
2023-01-04T13:40:16.893Z,94947.94
2023-01-04T13:42:47.045Z,94952.06
2023-01-04T13:45:21.625Z,94955.72
2023-01-04T13:47:52.078Z,94946.63
2023-01-04T13:50:29.661Z,94944.28
2023-01-04T13:53:06.109Z,94935.19
2023-01-04T13:55:38.080Z,94934.41
2023-01-04T13:58:20.408Z,94932.06
2023-01-04T14:00:54.173Z,94925.81
2023-01-04T14:03:37.112Z,94928.69
2023-01-04T14:06:09.414Z,94936.47
2023-01-04T14:08:40.042Z,94931.78
2023-01-04T14:11:37.065Z,94930.72
2023-01-04T14:14:05.558Z,94925.03
2023-01-04T14:16:32.083Z,94918.25
2023-01-04T14:18:58.520Z,94920.88
2023-01-04T14:21:35.548Z,94910.47
2023-01-04T14:24:01.967Z,94912.06
2023-01-04T14:26:33.147Z,94902.44
2023-01-04T14:29:19.566Z,94905.84
2023-01-04T14:31:46.034Z,94910.47
2023-01-04T14:34:14.564Z,94911.25
2023-01-04T14:36:42.115Z,94907.38
2023-01-04T14:39:12.561Z,94914.38
2023-01-04T14:41:51.622Z,94922.66
2023-01-04T14:44:24.140Z,94925.25
2023-01-04T14:46:54.758Z,94921.88
2023-01-04T14:49:22.318Z,94922.41
2023-01-04T14:51:56.970Z,94923.44
2023-01-04T14:54:25.786Z,94915.91
2023-01-04T14:56:56.815Z,94932.00
2023-01-04T14:59:24.602Z,94926.03
2023-01-04T15:01:53.073Z,94926.03
2023-01-04T15:04:19.948Z,94916.16
2023-01-04T15:06:52.182Z,94916.94
2023-01-04T15:09:18.773Z,94910.97
2023-01-04T15:11:45.312Z,94909.41
2023-01-04T15:14:11.956Z,94910.97
2023-01-04T15:16:38.995Z,94919.53
2023-01-04T15:19:05.561Z,94918.75
2023-01-04T15:21:36.950Z,94912.00
2023-01-04T15:24:07.726Z,94910.69
2023-01-04T15:26:34.137Z,94912.53
2023-01-04T15:29:00.588Z,94905.78
2023-01-04T15:31:32.407Z,94907.88
2023-01-04T15:34:01.476Z,94901.91
2023-01-04T15:36:27.937Z,94899.06
2023-01-04T15:38:55.359Z,94893.88
2023-01-04T15:41:40.556Z,94893.34
2023-01-04T15:44:09.338Z,94896.47
2023-01-04T15:46:35.901Z,94893.63
2023-01-04T15:49:02.435Z,94886.88
2023-01-04T15:51:28.904Z,94868.69
2023-01-04T15:53:56.585Z,94886.38
2023-01-04T15:56:23.203Z,94891.28
2023-01-04T15:58:55.612Z,94897.00
2023-01-04T16:01:22.936Z,94884.81
2023-01-04T16:03:53.457Z,94885.59
2023-01-04T16:06:20.607Z,94889.47
2023-01-04T16:08:48.801Z,94882.75
2023-01-04T16:11:23.568Z,94870.00
2023-01-04T16:13:52.224Z,94871.03
2023-01-04T16:16:20.707Z,94869.22
2023-01-04T16:18:51.353Z,94872.88
2023-01-04T16:21:26.194Z,94866.38
2023-01-04T16:24:05.111Z,94863.53
2023-01-04T16:26:36.096Z,94858.06
2023-01-04T16:29:02.982Z,94849.75
2023-01-04T16:31:34.211Z,94857.03
2023-01-04T16:34:00.672Z,94850.28
2023-01-04T16:36:27.219Z,94847.69
2023-01-04T16:38:53.671Z,94845.34
2023-01-04T16:41:21.262Z,94854.94
2023-01-04T16:43:50.510Z,94843.28
2023-01-04T16:46:26.324Z,94834.44
2023-01-04T16:48:59.017Z,94850.78
2023-01-04T16:51:27.861Z,94847.94
2023-01-04T16:53:54.935Z,94841.97
2023-01-04T16:56:23.482Z,94846.88
2023-01-04T16:58:50.425Z,94852.09
2023-01-04T17:01:23.216Z,94846.66
2023-01-04T17:03:53.617Z,94848.22
2023-01-04T17:06:23.315Z,94837.03
2023-01-04T17:08:52.483Z,94829.00
2023-01-04T17:14:09.961Z,94820.69
2023-01-04T17:16:36.379Z,94829.50
2023-01-04T17:19:02.825Z,94821.47
2023-01-04T17:21:34.993Z,94814.19
2023-01-04T17:24:02.350Z,94813.94
2023-01-04T17:26:32.311Z,94816.25
2023-01-04T17:29:00.380Z,94825.34
2023-01-04T17:31:35.673Z,94823.25
2023-01-04T17:34:03.105Z,94822.25
2023-01-04T17:36:29.664Z,94815.47
2023-01-04T17:38:58.132Z,94805.63
2023-01-04T17:41:27.099Z,94829.00
2023-01-04T17:43:57.474Z,94824.06
2023-01-04T17:46:24.906Z,94818.34
2023-01-04T17:49:21.569Z,94805.63
2023-01-04T17:51:39.745Z,94800.69
2023-01-04T17:54:06.745Z,94808.75
2023-01-04T17:56:33.478Z,94806.41
2023-01-04T17:59:02.780Z,94804.59
2023-01-04T18:01:30.501Z,94812.38
2023-01-04T18:03:59.106Z,94805.09
2023-01-04T18:06:34.714Z,94802.50
2023-01-04T18:09:02.484Z,94811.88
2023-01-04T18:11:29.225Z,94806.13
2023-01-04T18:13:56.431Z,94806.66
2023-01-04T18:16:26.553Z,94814.72
2023-01-04T18:18:54.561Z,94807.19
2023-01-04T18:21:28.318Z,94806.66
2023-01-04T18:29:31.697Z,94797.31
2023-01-04T18:31:58.243Z,94797.81
2023-01-04T18:34:26.471Z,94795.19
2023-01-04T18:36:53.126Z,94802.19
2023-01-04T18:39:19.566Z,94799.88
2023-01-04T18:41:46.201Z,94797.78
2023-01-04T18:44:31.965Z,94791.03
2023-01-04T18:46:59.139Z,94796.75
2023-01-04T18:49:25.625Z,94785.84
2023-01-04T18:51:52.048Z,94783.25
2023-01-04T18:54:20.690Z,94779.34
2023-01-04T18:56:47.721Z,94790.53
2023-01-04T18:59:17.176Z,94785.34
2023-01-04T19:01:45.205Z,94787.38
2023-01-04T19:04:12.668Z,94776.25
2023-01-04T19:06:40.860Z,94778.84
2023-01-04T19:09:07.679Z,94783.25
2023-01-04T19:11:35.349Z,94781.16
2023-01-04T19:14:03.031Z,94787.94
2023-01-04T19:16:31.185Z,94790.53
2023-01-04T19:18:59.815Z,94783.25
2023-01-04T19:21:27.259Z,94785.84
2023-01-04T19:23:53.750Z,94787.41
2023-01-04T19:26:20.642Z,94773.66
2023-01-04T19:28:47.294Z,94789.47
2023-01-04T19:31:14.685Z,94781.19
2023-01-04T19:33:41.416Z,94773.91
2023-01-04T19:36:10.055Z,94772.09
2023-01-04T19:38:37.169Z,94767.19
2023-01-04T19:41:04.933Z,94774.97
2023-01-04T19:43:31.672Z,94769.78
2023-01-04T19:45:58.150Z,94774.44
2023-01-04T19:48:24.770Z,94773.91
2023-01-04T19:51:12.381Z,94769.00
2023-01-04T19:53:41.373Z,94774.44
2023-01-04T19:56:08.990Z,94770.78
2023-01-04T19:58:37.500Z,94772.38
2023-01-04T20:01:05.052Z,94766.41
2023-01-04T20:03:31.540Z,94764.31
2023-01-04T20:06:06.155Z,94765.88
2023-01-04T20:08:32.928Z,94754.22
2023-01-04T20:11:00.521Z,94768.75
2023-01-04T20:13:28.476Z,94772.88
2023-01-04T20:15:55.185Z,94763.03
2023-01-04T20:18:23.775Z,94768.22
2023-01-04T20:20:50.343Z,94754.75
2023-01-04T20:23:16.780Z,94758.91
2023-01-04T20:25:45.910Z,94756.06
2023-01-04T20:28:13.669Z,94760.19
2023-01-04T20:30:40.795Z,94747.78
2023-01-04T20:33:07.999Z,94752.69
2023-01-04T20:35:37.984Z,94760.97
2023-01-04T20:38:04.449Z,94756.56
2023-01-04T20:40:30.899Z,94753.97
2023-01-04T20:43:16.195Z,94753.72
2023-01-04T20:45:44.229Z,94754.22
2023-01-04T20:48:11.177Z,94753.72
2023-01-04T20:50:38.008Z,94745.66
2023-01-04T20:53:05.035Z,94757.88
2023-01-04T20:55:31.531Z,94766.44
2023-01-04T20:57:57.971Z,94753.19
2023-01-04T21:00:24.538Z,94749.81
2023-01-04T21:02:51.086Z,94744.59
2023-01-04T21:05:17.636Z,94736.25
2023-01-04T21:07:44.031Z,94738.03
2023-01-04T21:10:10.451Z,94749.97
2023-01-04T21:12:38.340Z,94735.09
2023-01-04T21:15:05.120Z,94739.19
2023-01-04T21:17:31.576Z,94734.47
2023-01-04T21:19:58.030Z,94727.94
2023-01-04T21:22:25.795Z,94713.31
2023-01-04T21:24:52.277Z,94717.22
2023-01-04T21:27:18.715Z,94717.72
2023-01-04T21:29:45.149Z,94722.38
2023-01-04T21:32:11.540Z,94713.75
2023-01-04T21:34:37.985Z,94737.94
2023-01-04T21:37:04.407Z,94736.63
2023-01-04T21:39:30.981Z,94720.19
2023-01-04T21:41:57.512Z,94725.66
2023-01-04T21:44:23.954Z,94723.03
2023-01-04T21:46:50.514Z,94719.66
2023-01-04T21:49:16.996Z,94753.47
2023-01-04T21:51:43.392Z,94727.22
2023-01-04T21:54:09.899Z,94740.22
2023-01-04T21:56:36.328Z,94730.84
2023-01-04T21:59:02.752Z,94727.47
2023-01-04T22:01:34.564Z,94729.53
2023-01-04T22:04:02.447Z,94761.03
2023-01-04T22:06:29.218Z,94743.03
2023-01-04T22:08:55.930Z,94732.13
2023-01-04T22:11:22.381Z,94739.94
2023-01-04T22:13:50.227Z,94750.59
2023-01-04T22:16:17.059Z,94746.91
2023-01-04T22:18:50.683Z,94717.75
2023-01-04T22:21:20.408Z,94750.59
2023-01-04T22:23:46.914Z,94736.00
2023-01-04T22:26:13.361Z,94733.91
2023-01-04T22:28:40.351Z,94737.53
2023-01-04T22:31:09.901Z,94742.75
2023-01-04T22:33:36.747Z,94730.78
2023-01-04T22:36:05.219Z,94738.56
2023-01-04T22:38:35.006Z,94724.25
2023-01-04T22:41:06.223Z,94724.56
2023-01-04T22:43:32.767Z,94734.66
2023-01-04T22:46:00.647Z,94730.78
2023-01-04T22:48:27.096Z,94724.03
2023-01-04T22:50:53.516Z,94717.75
2023-01-04T22:53:20.059Z,94722.97
2023-01-04T22:56:17.838Z,94726.09
2023-01-04T22:58:35.618Z,94718.03
2023-01-04T23:01:03.598Z,94725.84
2023-01-04T23:03:33.219Z,94729.78
2023-01-04T23:05:59.821Z,94719.38
2023-01-04T23:08:26.276Z,94711.81
2023-01-04T23:10:52.659Z,94725.59
2023-01-04T23:13:19.078Z,94716.75
2023-01-04T23:15:45.458Z,94713.38
2023-01-04T23:18:11.958Z,94707.88
2023-01-04T23:20:38.431Z,94707.41
2023-01-04T23:23:04.813Z,94708.97
2023-01-04T23:25:31.267Z,94700.38
2023-01-04T23:27:57.655Z,94700.88
2023-01-04T23:30:24.080Z,94704.25
2023-01-04T23:32:50.499Z,94699.34
2023-01-04T23:35:17.973Z,94693.34
2023-01-04T23:37:44.377Z,94685.25
2023-01-04T23:40:11.270Z,94679.28
2023-01-04T23:42:39.569Z,94679.56
2023-01-04T23:45:06.980Z,94677.75
2023-01-04T23:47:33.401Z,94683.72
2023-01-04T23:49:59.821Z,94687.06
2023-01-04T23:52:26.216Z,94686.03
2023-01-04T23:54:52.661Z,94671.22
2023-01-04T23:57:19.051Z,94677.19
2023-01-04T23:59:45.480Z,94683.94
